Time;durP1;ratioP1;P1;durP2;ratioP2;P2;SDS_P1;SDS_P2;PMS_P1;PMS_P2;Temp;Humidity;BMP_temperature;BMP_pressure;BME280_temperature;BME280_humidity;BME280_pressure;Samples;Min_cycle;Max_cycle;Signal;HPM_P1;HPM_P2
2023/07/03 00:00:19;;;;;;;28.70;18.83;;;13.30;99.90;;;;;;5075034;28;20197;-71
2023/07/03 00:02:49;;;;;;;30.40;17.77;;;13.20;99.90;;;;;;5074879;28;20201;-71
2023/07/03 00:05:17;;;;;;;29.23;19.17;;;13.20;99.90;;;;;;5074918;28;20201;-71
2023/07/03 00:07:46;;;;;;;31.30;18.87;;;13.20;99.90;;;;;;5074593;28;20193;-71
2023/07/03 00:10:13;;;;;;;28.37;17.87;;;13.20;99.90;;;;;;5074549;28;20242;-71
2023/07/03 00:12:40;;;;;;;27.33;18.40;;;13.20;99.90;;;;;;5074740;28;20204;-72
2023/07/03 00:15:07;;;;;;;29.47;18.47;;;13.20;99.90;;;;;;5074825;28;20205;-71
2023/07/03 00:17:37;;;;;;;27.37;17.53;;;13.20;99.90;;;;;;5074354;28;20699;-71
2023/07/03 00:20:05;;;;;;;28.60;18.13;;;13.00;99.90;;;;;;5074392;28;20564;-71
2023/07/03 00:22:32;;;;;;;24.90;17.13;;;12.90;99.90;;;;;;5074229;28;20542;-71
2023/07/03 00:24:58;;;;;;;27.17;17.40;;;13.00;99.90;;;;;;5074520;28;20234;-71
2023/07/03 00:27:25;;;;;;;27.37;17.20;;;13.10;99.90;;;;;;5074512;28;20746;-71
2023/07/03 00:29:52;;;;;;;23.03;17.07;;;13.20;99.90;;;;;;5074416;28;20193;-71
2023/07/03 00:32:18;;;;;;;28.43;17.97;;;13.10;99.90;;;;;;5074034;28;20599;-71
2023/07/03 00:34:46;;;;;;;28.33;16.83;;;13.10;99.90;;;;;;5074264;28;20246;-71
2023/07/03 00:37:14;;;;;;;25.50;16.70;;;13.30;99.90;;;;;;5073926;28;20224;-71
2023/07/03 00:39:41;;;;;;;28.23;18.03;;;13.40;99.90;;;;;;5073986;28;20636;-71
2023/07/03 00:42:07;;;;;;;24.93;16.80;;;13.50;99.90;;;;;;5074180;28;20530;-72
2023/07/03 00:44:34;;;;;;;23.63;16.40;;;13.60;99.90;;;;;;5073994;28;20346;-71
2023/07/03 00:47:00;;;;;;;26.07;16.77;;;13.50;99.90;;;;;;5073951;28;20266;-71
2023/07/03 00:49:27;;;;;;;28.73;17.97;;;13.50;99.90;;;;;;5073743;28;20197;-71
2023/07/03 00:51:58;;;;;;;26.77;17.17;;;13.60;99.90;;;;;;5073937;28;20223;-71
2023/07/03 00:54:25;;;;;;;25.73;16.90;;;13.60;99.90;;;;;;5073978;28;20201;-71
2023/07/03 00:56:51;;;;;;;26.57;16.80;;;13.70;99.90;;;;;;5073800;28;20291;-71
2023/07/03 00:59:19;;;;;;;27.27;17.23;;;13.80;99.90;;;;;;5073926;28;20592;-71
2023/07/03 01:01:51;;;;;;;21.87;15.93;;;13.70;99.90;;;;;;5073734;28;20200;-71
2023/07/03 01:04:23;;;;;;;25.53;16.40;;;13.70;99.90;;;;;;5073717;28;20189;-71
2023/07/03 01:06:56;;;;;;;25.23;16.80;;;13.70;99.90;;;;;;5073856;28;20258;-71
2023/07/03 01:09:29;;;;;;;23.53;17.33;;;13.60;99.90;;;;;;5073738;28;20197;-71
2023/07/03 01:11:58;;;;;;;21.27;15.37;;;13.70;99.90;;;;;;5073619;28;20598;-71
2023/07/03 01:14:26;;;;;;;23.87;16.83;;;13.70;99.90;;;;;;5073601;28;20242;-71
2023/07/03 01:16:56;;;;;;;25.53;16.93;;;13.60;99.90;;;;;;5073561;28;20615;-71
2023/07/03 01:19:29;;;;;;;22.80;16.67;;;13.70;99.90;;;;;;5073799;28;20255;-71
2023/07/03 01:22:02;;;;;;;27.90;16.70;;;13.70;99.90;;;;;;5073213;28;20204;-71
2023/07/03 01:24:38;;;;;;;23.87;16.33;;;13.50;99.90;;;;;;5073381;28;20193;-71
2023/07/03 01:27:07;;;;;;;27.27;17.03;;;13.50;99.90;;;;;;5073157;28;20205;-71
2023/07/03 01:29:36;;;;;;;25.90;16.63;;;13.50;99.90;;;;;;5073112;28;20595;-71
2023/07/03 01:32:04;;;;;;;26.00;15.87;;;13.60;99.90;;;;;;5073026;28;20711;-71
2023/07/03 01:34:33;;;;;;;23.07;15.50;;;13.60;99.90;;;;;;5073484;28;20212;-71
2023/07/03 01:37:02;;;;;;;27.13;16.80;;;13.60;99.90;;;;;;5073029;28;20221;-71
2023/07/03 01:39:29;;;;;;;22.70;15.73;;;13.60;99.90;;;;;;5072947;28;20197;-71
2023/07/03 01:41:59;;;;;;;25.60;16.07;;;13.60;99.90;;;;;;5073269;28;20254;-71
2023/07/03 01:44:25;;;;;;;25.90;15.70;;;13.50;99.90;;;;;;5072818;28;20197;-71
2023/07/03 01:46:52;;;;;;;26.70;16.17;;;13.50;99.90;;;;;;5073123;28;20208;-71
2023/07/03 01:49:19;;;;;;;22.37;15.70;;;13.50;99.90;;;;;;5073062;28;20197;-71
2023/07/03 01:51:54;;;;;;;24.73;16.37;;;13.50;99.90;;;;;;5072932;28;20197;-71
2023/07/03 01:54:27;;;;;;;24.83;16.07;;;13.50;99.90;;;;;;5072834;28;20651;-71
2023/07/03 01:56:55;;;;;;;24.70;15.43;;;13.40;99.90;;;;;;5072661;28;20328;-71
2023/07/03 01:59:25;;;;;;;23.30;14.73;;;13.40;99.90;;;;;;5073043;28;20201;-72
2023/07/03 02:01:59;;;;;;;25.73;16.03;;;13.30;99.90;;;;;;5072856;28;20205;-69
2023/07/03 02:04:31;;;;;;;23.47;14.70;;;13.20;99.90;;;;;;5072768;28;20196;-71
2023/07/03 02:06:58;;;;;;;27.30;15.90;;;13.20;99.90;;;;;;5073048;28;20607;-72
2023/07/03 02:09:25;;;;;;;25.73;16.33;;;13.20;99.90;;;;;;5073085;28;20201;-71
2023/07/03 02:11:53;;;;;;;23.43;14.57;;;13.20;99.90;;;;;;5072743;28;20235;-70
2023/07/03 02:14:20;;;;;;;29.93;17.77;;;13.30;99.90;;;;;;5072548;28;20719;-71
2023/07/03 02:16:48;;;;;;;21.80;14.80;;;13.40;99.90;;;;;;5072614;28;20220;-71
2023/07/03 02:19:15;;;;;;;27.00;15.57;;;13.20;99.90;;;;;;5072551;28;20204;-71
2023/07/03 02:21:43;;;;;;;22.33;14.60;;;13.20;99.90;;;;;;5072904;28;20204;-71
2023/07/03 02:24:11;;;;;;;26.13;15.47;;;13.20;99.90;;;;;;5072659;28;20584;-71
2023/07/03 02:26:37;;;;;;;24.30;14.77;;;13.20;99.90;;;;;;5072673;28;20193;-71
2023/07/03 02:29:04;;;;;;;28.27;15.47;;;13.30;99.90;;;;;;5072552;28;20243;-72
2023/07/03 02:31:31;;;;;;;24.80;16.00;;;13.50;99.90;;;;;;5072479;28;20648;-71
2023/07/03 02:33:58;;;;;;;22.93;15.93;;;13.50;99.90;;;;;;5072435;28;20232;-71
2023/07/03 02:36:29;;;;;;;27.43;15.63;;;13.50;99.90;;;;;;5072467;28;20254;-71
2023/07/03 02:38:56;;;;;;;23.40;16.47;;;13.50;99.90;;;;;;5072357;28;20657;-71
2023/07/03 02:41:23;;;;;;;23.87;15.33;;;13.40;99.90;;;;;;5072481;28;20225;-71
2023/07/03 02:43:49;;;;;;;27.87;14.97;;;13.50;99.90;;;;;;5072474;28;20193;-70
2023/07/03 02:46:16;;;;;;;25.33;15.37;;;13.40;99.90;;;;;;5072253;28;20243;-70
2023/07/03 02:48:42;;;;;;;20.73;14.67;;;13.40;99.90;;;;;;5072543;28;20229;-70
2023/07/03 02:51:10;;;;;;;24.13;15.40;;;13.40;99.90;;;;;;5072567;28;20274;-70
2023/07/03 02:53:37;;;;;;;22.03;14.97;;;13.40;99.90;;;;;;5072442;28;20201;-70
2023/07/03 02:56:04;;;;;;;27.70;15.87;;;13.40;99.90;;;;;;5074315;28;20757;-71
2023/07/03 02:58:30;;;;;;;22.40;14.77;;;13.40;99.90;;;;;;5076058;28;20220;-71
2023/07/03 03:00:57;;;;;;;20.43;14.27;;;13.50;99.90;;;;;;5076085;28;20592;-71
2023/07/03 03:03:24;;;;;;;25.83;15.30;;;13.50;99.90;;;;;;5076028;28;20659;-71
2023/07/03 03:05:51;;;;;;;26.03;15.17;;;13.50;99.90;;;;;;5076075;28;20251;-71
2023/07/03 03:08:21;;;;;;;28.37;15.40;;;13.40;99.90;;;;;;5075825;28;20262;-70
2023/07/03 03:10:47;;;;;;;26.80;15.70;;;13.50;99.90;;;;;;5075943;28;20229;-71
2023/07/03 03:13:14;;;;;;;24.03;14.90;;;13.50;99.90;;;;;;5075711;28;20660;-70
2023/07/03 03:15:42;;;;;;;25.03;15.33;;;13.50;99.90;;;;;;5075694;28;20670;-70
2023/07/03 03:18:08;;;;;;;23.63;14.97;;;13.50;99.90;;;;;;5075716;28;20274;-71
2023/07/03 03:20:35;;;;;;;25.33;14.30;;;13.50;99.90;;;;;;5075704;28;20545;-70
2023/07/03 03:23:02;;;;;;;27.07;14.87;;;13.60;99.90;;;;;;5075757;28;20239;-71
2023/07/03 03:25:30;;;;;;;24.67;14.57;;;13.60;99.90;;;;;;5075638;28;20287;-71
2023/07/03 03:27:58;;;;;;;24.60;14.73;;;13.60;99.90;;;;;;5075523;28;20193;-70
2023/07/03 03:30:25;;;;;;;23.13;13.53;;;13.80;99.90;;;;;;5075787;28;20197;-71
2023/07/03 03:32:51;;;;;;;22.47;14.23;;;13.70;99.90;;;;;;5075633;28;20193;-70
2023/07/03 03:35:18;;;;;;;24.97;15.17;;;13.80;99.90;;;;;;5075567;28;20205;-70
2023/07/03 03:37:45;;;;;;;24.13;14.37;;;13.80;99.90;;;;;;5075405;28;20221;-70
2023/07/03 03:40:11;;;;;;;22.57;14.50;;;13.80;99.90;;;;;;5075319;28;20255;-70
2023/07/03 03:42:39;;;;;;;22.37;13.77;;;13.80;99.90;;;;;;5075096;28;20722;-70
2023/07/03 03:45:07;;;;;;;21.93;14.50;;;13.90;99.90;;;;;;5075256;28;20687;-70
2023/07/03 03:47:34;;;;;;;23.67;14.83;;;13.90;99.90;;;;;;5075355;28;20201;-70
2023/07/03 03:50:01;;;;;;;19.50;13.67;;;14.10;99.90;;;;;;5075310;28;20197;-70
2023/07/03 03:52:28;;;;;;;22.97;14.70;;;14.10;99.90;;;;;;5075099;28;20203;-71
2023/07/03 03:54:54;;;;;;;20.40;14.40;;;14.10;99.90;;;;;;5074690;28;20197;-70
2023/07/03 03:57:21;;;;;;;23.10;14.63;;;14.20;99.90;;;;;;5075204;28;20279;-71
2023/07/03 03:59:49;;;;;;;21.50;14.07;;;14.40;99.90;;;;;;5074959;28;20197;-70
2023/07/03 04:02:16;;;;;;;22.87;14.67;;;14.40;99.90;;;;;;5074972;28;20255;-70
2023/07/03 04:04:43;;;;;;;22.87;14.00;;;14.50;99.90;;;;;;5074864;28;20209;-71
2023/07/03 04:07:10;;;;;;;21.17;13.73;;;14.50;99.90;;;;;;5074298;28;20216;-70
2023/07/03 04:09:36;;;;;;;25.67;14.30;;;14.60;99.90;;;;;;5074600;28;20201;-71
2023/07/03 04:12:03;;;;;;;24.97;14.43;;;14.60;99.90;;;;;;5074951;28;20197;-70
2023/07/03 04:14:30;;;;;;;22.73;14.33;;;14.70;99.90;;;;;;5074867;28;20205;-70
2023/07/03 04:16:58;;;;;;;22.77;14.10;;;14.70;99.90;;;;;;5074800;28;20626;-70
2023/07/03 04:19:26;;;;;;;23.03;14.03;;;14.80;99.90;;;;;;5074366;28;20704;-70
2023/07/03 04:21:53;;;;;;;22.13;14.00;;;14.80;99.90;;;;;;5074398;28;20201;-70
2023/07/03 04:24:20;;;;;;;20.07;13.30;;;14.90;99.90;;;;;;5074354;28;20197;-71
2023/07/03 04:26:46;;;;;;;22.20;14.03;;;15.00;99.90;;;;;;5074527;28;20197;-70
2023/07/03 04:29:13;;;;;;;20.93;13.43;;;15.10;99.90;;;;;;5074487;28;20278;-70
2023/07/03 04:31:40;;;;;;;21.47;13.93;;;15.20;99.90;;;;;;5074399;28;20266;-70
2023/07/03 04:34:07;;;;;;;26.03;14.30;;;15.20;99.90;;;;;;5074214;28;20218;-70
2023/07/03 04:36:34;;;;;;;20.63;13.83;;;15.30;99.90;;;;;;5074157;28;20226;-70
2023/07/03 04:39:01;;;;;;;23.83;14.30;;;15.30;99.90;;;;;;5074400;28;20229;-70
2023/07/03 04:41:28;;;;;;;22.93;13.77;;;15.30;99.90;;;;;;5074194;28;20262;-71
2023/07/03 04:43:57;;;;;;;23.07;13.83;;;15.30;99.90;;;;;;5074135;28;20203;-70
2023/07/03 04:46:26;;;;;;;22.57;14.03;;;15.30;99.90;;;;;;5074076;28;20287;-70
2023/07/03 04:48:53;;;;;;;19.63;12.57;;;15.40;99.90;;;;;;5073947;28;20197;-70
2023/07/03 04:51:21;;;;;;;21.70;13.73;;;15.50;99.90;;;;;;5073880;28;20223;-70
2023/07/03 04:53:48;;;;;;;21.27;13.57;;;15.60;99.90;;;;;;5074155;28;20193;-70
2023/07/03 04:56:15;;;;;;;21.73;13.87;;;15.70;99.90;;;;;;5073541;28;20228;-72
2023/07/03 04:58:42;;;;;;;22.53;13.83;;;15.60;99.90;;;;;;5073760;28;20233;-71
2023/07/03 05:01:11;;;;;;;24.23;14.37;;;15.70;99.90;;;;;;5073794;28;20193;-71
2023/07/03 05:03:38;;;;;;;24.70;13.93;;;15.80;99.90;;;;;;5073574;28;20229;-71
2023/07/03 05:06:05;;;;;;;22.00;13.47;;;15.90;99.90;;;;;;5073852;28;20220;-71
2023/07/03 05:08:33;;;;;;;19.70;13.75;;;15.90;99.90;;;;;;5073469;28;20660;-71
2023/07/03 05:11:00;;;;;;;19.25;13.68;;;16.00;99.90;;;;;;5073567;28;20196;-69
2023/07/03 05:13:27;;;;;;;20.00;12.93;;;16.20;99.90;;;;;;5073506;28;20207;-71
2023/07/03 05:15:54;;;;;;;22.67;13.45;;;16.20;99.90;;;;;;5073348;28;20660;-70
2023/07/03 05:18:21;;;;;;;20.42;13.77;;;16.40;99.90;;;;;;5072315;28;20227;-70
2023/07/03 05:20:48;;;;;;;24.27;13.75;;;16.40;99.90;;;;;;5073460;28;20204;-70
2023/07/03 05:23:15;;;;;;;21.88;12.93;;;16.50;99.90;;;;;;5073314;28;20213;-70
2023/07/03 05:25:44;;;;;;;18.73;12.60;;;16.50;99.90;;;;;;5073313;28;20208;-71
2023/07/03 05:28:10;;;;;;;19.73;13.18;;;16.70;99.90;;;;;;5073071;28;20676;-71
2023/07/03 05:30:37;;;;;;;21.48;13.23;;;16.70;99.90;;;;;;5073021;28;20250;-71
2023/07/03 05:33:04;;;;;;;20.85;12.82;;;16.90;99.90;;;;;;5072974;28;20246;-70
2023/07/03 05:35:30;;;;;;;17.67;12.55;;;16.90;99.90;;;;;;5073188;28;20242;-70
2023/07/03 05:37:59;;;;;;;20.55;12.07;;;17.10;99.90;;;;;;5072781;28;20266;-70
2023/07/03 05:40:27;;;;;;;19.35;12.80;;;17.20;99.90;;;;;;5073088;28;20599;-70
2023/07/03 05:42:55;;;;;;;18.20;12.07;;;17.20;99.90;;;;;;5072947;28;20699;-71
2023/07/03 05:45:22;;;;;;;20.30;12.63;;;17.30;99.90;;;;;;5072767;28;20201;-70
2023/07/03 05:47:49;;;;;;;19.63;12.77;;;17.40;99.90;;;;;;5073042;28;20193;-71
2023/07/03 05:50:16;;;;;;;23.23;13.43;;;17.50;99.90;;;;;;5072948;28;20192;-71
2023/07/03 05:52:44;;;;;;;17.45;11.65;;;17.40;99.90;;;;;;5072741;28;20242;-71
2023/07/03 05:55:11;;;;;;;20.48;13.02;;;17.60;99.90;;;;;;5072718;28;20229;-71
2023/07/03 05:57:38;;;;;;;24.77;12.85;;;17.70;99.90;;;;;;5072625;28;20716;-71
2023/07/03 06:00:12;;;;;;;20.98;12.68;;;17.80;99.90;;;;;;5072593;28;20201;-72
2023/07/03 06:02:39;;;;;;;21.23;13.10;;;17.90;99.90;;;;;;5072669;28;20525;-71
2023/07/03 06:05:07;;;;;;;20.80;13.27;;;17.90;99.90;;;;;;5072805;28;20204;-71
2023/07/03 06:07:33;;;;;;;17.88;11.55;;;17.90;99.90;;;;;;5072892;28;20442;-71
2023/07/03 06:10:00;;;;;;;19.13;12.32;;;17.80;99.90;;;;;;5072851;28;20209;-71
2023/07/03 06:12:29;;;;;;;21.02;12.82;;;17.90;99.90;;;;;;5072618;28;20714;-71
2023/07/03 06:14:56;;;;;;;21.67;12.68;;;17.90;99.90;;;;;;5072846;28;20220;-72
2023/07/03 06:17:24;;;;;;;20.50;12.40;;;17.90;99.90;;;;;;5072527;28;20668;-71
2023/07/03 06:19:51;;;;;;;20.15;13.02;;;17.90;99.90;;;;;;5072608;28;20311;-71
2023/07/03 06:22:18;;;;;;;19.67;11.95;;;18.10;99.90;;;;;;5072480;28;20224;-71
2023/07/03 06:24:44;;;;;;;23.58;13.13;;;18.40;99.90;;;;;;5072457;28;20197;-71
2023/07/03 06:27:11;;;;;;;23.75;12.45;;;18.40;99.90;;;;;;5072507;28;20196;-71
2023/07/03 06:29:38;;;;;;;18.42;12.45;;;18.40;99.90;;;;;;5074599;28;20209;-71
2023/07/03 06:32:06;;;;;;;21.83;13.25;;;18.60;99.90;;;;;;5076744;28;20545;-71
2023/07/03 06:34:34;;;;;;;22.67;12.25;;;18.60;99.90;;;;;;5076746;28;20201;-71
2023/07/03 06:37:02;;;;;;;22.65;11.82;;;18.70;99.90;;;;;;5076502;28;20227;-71
2023/07/03 06:39:29;;;;;;;21.77;12.18;;;18.60;99.90;;;;;;5076273;28;20256;-71
2023/07/03 06:41:56;;;;;;;20.23;12.65;;;18.50;99.90;;;;;;5076251;28;20231;-71
2023/07/03 06:44:22;;;;;;;23.30;11.80;;;18.70;99.90;;;;;;5076494;28;20204;-70
2023/07/03 06:46:50;;;;;;;20.13;12.15;;;18.60;99.90;;;;;;5076354;28;20197;-70
2023/07/03 06:49:20;;;;;;;21.85;12.70;;;18.60;99.90;;;;;;5076293;28;20201;-70
2023/07/03 06:51:48;;;;;;;19.08;11.98;;;18.60;99.90;;;;;;5076107;28;20292;-70
2023/07/03 06:54:14;;;;;;;19.98;12.48;;;18.70;99.90;;;;;;5075954;28;20205;-70
2023/07/03 06:56:41;;;;;;;18.38;11.75;;;18.90;99.90;;;;;;5075933;28;20278;-71
2023/07/03 06:59:08;;;;;;;19.48;11.65;;;19.10;99.90;;;;;;5075990;28;20631;-71
2023/07/03 07:01:34;;;;;;;21.92;12.27;;;19.10;99.90;;;;;;5076074;28;20234;-71
2023/07/03 07:04:01;;;;;;;17.17;11.40;;;19.20;99.90;;;;;;5075827;28;20193;-70
2023/07/03 07:06:30;;;;;;;19.33;11.65;;;19.30;99.90;;;;;;5075770;28;20201;-71
2023/07/03 07:08:58;;;;;;;16.77;11.27;;;19.40;99.90;;;;;;5076049;28;20262;-70
2023/07/03 07:11:27;;;;;;;20.80;11.93;;;19.20;99.90;;;;;;5075772;28;20201;-70
2023/07/03 07:13:56;;;;;;;24.20;11.93;;;19.20;99.90;;;;;;5075589;28;20656;-70
2023/07/03 07:16:26;;;;;;;17.88;11.23;;;19.30;99.90;;;;;;5075653;28;20262;-73
2023/07/03 07:18:54;;;;;;;19.00;11.18;;;19.60;99.90;;;;;;5075378;28;20262;-72
2023/07/03 07:21:21;;;;;;;16.83;10.90;;;19.60;99.90;;;;;;5075386;28;20197;-71
2023/07/03 07:23:51;;;;;;;22.13;10.95;;;19.70;99.90;;;;;;5075617;28;20196;-70
2023/07/03 07:26:20;;;;;;;18.25;10.50;;;19.60;99.90;;;;;;5075604;28;20280;-71
2023/07/03 07:28:47;;;;;;;18.63;10.95;;;19.70;99.90;;;;;;5075382;28;20250;-72
2023/07/03 07:31:19;;;;;;;16.40;10.57;;;19.70;99.90;;;;;;5075411;28;20205;-72
2023/07/03 07:33:46;;;;;;;18.45;11.07;;;19.80;99.90;;;;;;5075198;28;20196;-71
2023/07/03 07:36:13;;;;;;;17.75;10.55;;;19.60;99.90;;;;;;5075455;28;20603;-72
2023/07/03 07:38:40;;;;;;;17.60;10.57;;;19.80;99.90;;;;;;5075268;28;20221;-72
2023/07/03 07:41:06;;;;;;;20.95;10.43;;;19.80;99.90;;;;;;5074430;28;20196;-71
2023/07/03 07:43:34;;;;;;;17.20;11.13;;;19.80;99.90;;;;;;5075167;28;20197;-72
2023/07/03 07:46:01;;;;;;;18.42;10.85;;;19.80;99.90;;;;;;5074971;28;20197;-72
2023/07/03 07:48:28;;;;;;;21.08;10.88;;;19.90;99.90;;;;;;5075026;28;20250;-72
2023/07/03 07:50:55;;;;;;;20.13;10.43;;;20.30;99.90;;;;;;5075139;28;20205;-72
2023/07/03 07:53:22;;;;;;;16.20;10.85;;;20.60;99.90;;;;;;5075006;28;20247;-71
2023/07/03 07:55:48;;;;;;;17.92;10.77;;;20.80;99.90;;;;;;5074779;28;20237;-71
2023/07/03 07:58:15;;;;;;;17.13;10.00;;;20.60;99.90;;;;;;5074654;28;20661;-71
2023/07/03 08:00:44;;;;;;;16.20;10.13;;;20.80;99.90;;;;;;5074719;28;20197;-72
2023/07/03 08:03:11;;;;;;;15.40;10.40;;;20.70;99.90;;;;;;5074656;28;20657;-71
2023/07/03 08:05:38;;;;;;;18.85;10.52;;;20.30;99.90;;;;;;5074823;28;20227;-72
2023/07/03 08:08:05;;;;;;;17.05;10.48;;;19.90;99.90;;;;;;5074752;28;20293;-72
2023/07/03 08:10:32;;;;;;;15.65;10.40;;;20.00;99.90;;;;;;5074634;28;20254;-72
2023/07/03 08:12:59;;;;;;;17.13;9.98;;;19.90;99.90;;;;;;5074531;28;20326;-72
2023/07/03 08:15:26;;;;;;;13.90;10.32;;;19.70;99.90;;;;;;5074432;28;20197;-71
2023/07/03 08:17:54;;;;;;;18.00;10.38;;;19.60;99.90;;;;;;5074593;28;20254;-72
2023/07/03 08:20:21;;;;;;;22.10;10.52;;;19.90;99.90;;;;;;5074378;28;20254;-72
2023/07/03 08:22:48;;;;;;;18.98;11.05;;;20.10;99.90;;;;;;5074327;28;20201;-72
2023/07/03 08:25:15;;;;;;;17.90;10.25;;;20.10;99.90;;;;;;5074240;28;20721;-71
2023/07/03 08:27:45;;;;;;;20.25;9.73;;;20.00;99.90;;;;;;5074372;28;20201;-70
2023/07/03 08:30:13;;;;;;;20.65;10.65;;;20.10;99.90;;;;;;5074341;28;20645;-71
2023/07/03 08:32:40;;;;;;;17.85;10.45;;;20.20;99.90;;;;;;5074496;28;20618;-71
2023/07/03 08:35:09;;;;;;;15.45;10.27;;;20.10;99.90;;;;;;5074419;28;20250;-71
2023/07/03 08:37:35;;;;;;;19.40;9.95;;;20.20;99.90;;;;;;5074268;28;20258;-71
2023/07/03 08:40:05;;;;;;;16.67;10.23;;;20.10;99.90;;;;;;5074052;28;20225;-71
2023/07/03 08:42:36;;;;;;;16.77;10.02;;;20.40;99.90;;;;;;5073998;28;20201;-71
2023/07/03 08:45:05;;;;;;;21.35;9.98;;;20.60;99.90;;;;;;5074001;28;20193;-71
2023/07/03 08:47:33;;;;;;;18.38;9.43;;;20.70;99.90;;;;;;5074102;28;20194;-71
2023/07/03 08:50:03;;;;;;;16.92;8.85;;;20.30;99.90;;;;;;5074114;28;20197;-71
2023/07/03 08:52:37;;;;;;;17.00;9.60;;;20.30;99.90;;;;;;5073951;28;20201;-70
2023/07/03 08:55:06;;;;;;;16.90;10.18;;;20.40;99.90;;;;;;5073572;28;20198;-71
2023/07/03 08:57:36;;;;;;;19.45;9.65;;;20.60;99.90;;;;;;5074025;28;20607;-71
2023/07/03 09:00:05;;;;;;;15.50;9.40;;;20.50;99.60;;;;;;5073910;28;20294;-71
2023/07/03 09:02:41;;;;;;;13.43;9.18;;;20.40;99.90;;;;;;5073736;28;20201;-70
2023/07/03 09:05:20;;;;;;;16.27;9.63;;;20.30;99.90;;;;;;5073734;28;20242;-71
2023/07/03 09:07:53;;;;;;;21.35;9.95;;;20.40;99.90;;;;;;5073818;28;20197;-71
2023/07/03 09:10:25;;;;;;;19.88;9.05;;;20.40;99.90;;;;;;5073735;28;20231;-71
2023/07/03 09:12:54;;;;;;;25.20;9.57;;;20.60;99.90;;;;;;5073549;28;20255;-71
2023/07/03 09:15:28;;;;;;;19.73;9.43;;;21.30;98.70;;;;;;5073437;28;20197;-71
2023/07/03 09:17:56;;;;;;;17.23;9.27;;;21.40;98.60;;;;;;5073383;28;20246;-71
2023/07/03 09:20:24;;;;;;;15.95;8.90;;;21.20;98.20;;;;;;5073410;28;20301;-71
2023/07/03 09:22:59;;;;;;;13.73;9.38;;;21.20;97.40;;;;;;5073460;28;20193;-70
2023/07/03 09:25:32;;;;;;;16.10;10.13;;;20.70;97.50;;;;;;5073446;28;20200;-71
2023/07/03 09:28:04;;;;;;;17.55;9.70;;;20.80;97.40;;;;;;5073338;28;20197;-71
2023/07/03 09:30:30;;;;;;;17.90;9.75;;;20.50;98.80;;;;;;5073161;28;20197;-71
2023/07/03 09:32:57;;;;;;;22.33;10.07;;;21.00;98.30;;;;;;5073165;28;20192;-70
2023/07/03 09:35:24;;;;;;;17.45;8.80;;;20.60;96.00;;;;;;5073184;28;20200;-71
2023/07/03 09:37:58;;;;;;;18.80;8.77;;;20.90;96.00;;;;;;5072985;28;20304;-71
2023/07/03 09:40:27;;;;;;;16.42;8.55;;;20.70;95.80;;;;;;5072992;28;20221;-71
2023/07/03 09:42:54;;;;;;;16.30;9.32;;;20.40;95.80;;;;;;5072803;28;20716;-72
2023/07/03 09:45:23;;;;;;;17.45;9.38;;;20.90;96.10;;;;;;5073170;28;20201;-70
2023/07/03 09:47:52;;;;;;;15.45;8.48;;;20.50;96.50;;;;;;5072789;28;20242;-71
2023/07/03 09:50:24;;;;;;;16.83;9.00;;;21.00;96.00;;;;;;5072942;28;20563;-70
2023/07/03 09:52:56;;;;;;;16.35;8.75;;;20.80;96.20;;;;;;5072889;28;20201;-70
2023/07/03 09:55:24;;;;;;;17.77;9.60;;;21.40;96.00;;;;;;5072567;28;20225;-70
2023/07/03 09:57:50;;;;;;;20.90;8.65;;;22.00;93.80;;;;;;5073047;28;20204;-70
2023/07/03 10:00:21;;;;;;;12.50;7.45;;;22.00;92.90;;;;;;5072818;28;20229;-69
2023/07/03 10:02:52;;;;;;;15.43;7.60;;;21.00;93.80;;;;;;5073002;28;20247;-71
2023/07/03 10:05:30;;;;;;;17.75;7.97;;;21.50;92.90;;;;;;5072377;28;20251;-71
2023/07/03 10:08:02;;;;;;;11.73;7.00;;;21.70;91.30;;;;;;5072745;28;20326;-71
2023/07/03 10:10:33;;;;;;;14.65;8.10;;;20.90;91.10;;;;;;5072873;28;20228;-71
2023/07/03 10:13:05;;;;;;;12.23;7.60;;;21.20;91.70;;;;;;5072673;28;20270;-70
2023/07/03 10:15:34;;;;;;;14.88;7.85;;;20.90;91.10;;;;;;5072657;28;20197;-71
2023/07/03 10:18:07;;;;;;;13.77;7.95;;;21.00;91.40;;;;;;5072544;28;20248;-71
2023/07/03 10:20:36;;;;;;;12.57;7.68;;;20.90;91.30;;;;;;5072548;28;20684;-71
2023/07/03 10:23:07;;;;;;;12.88;6.95;;;22.50;90.00;;;;;;5072752;28;20254;-71
2023/07/03 10:25:37;;;;;;;13.75;7.15;;;21.80;89.40;;;;;;5072482;28;20695;-71
2023/07/03 10:28:09;;;;;;;13.45;8.02;;;22.10;89.20;;;;;;5072602;28;20193;-71
2023/07/03 10:30:39;;;;;;;11.13;6.50;;;22.60;88.40;;;;;;5072459;28;20696;-71
2023/07/03 10:33:11;;;;;;;11.80;6.68;;;22.70;82.50;;;;;;5072684;28;20257;-71
2023/07/03 10:35:41;;;;;;;13.93;7.45;;;22.90;79.70;;;;;;5072862;28;20197;-71
2023/07/03 10:38:14;;;;;;;21.98;6.72;;;22.30;79.60;;;;;;5072350;28;20232;-71
2023/07/03 10:40:55;;;;;;;14.85;7.30;;;21.90;79.90;;;;;;5072456;28;20220;-71
2023/07/03 10:43:23;;;;;;;12.07;6.68;;;22.10;80.50;;;;;;5072448;28;20283;-71
2023/07/03 10:45:52;;;;;;;11.68;6.35;;;22.10;80.40;;;;;;5072580;28;20197;-71
2023/07/03 10:48:23;;;;;;;14.85;6.18;;;22.70;78.60;;;;;;5072579;28;20249;-71
2023/07/03 10:50:59;;;;;;;14.57;6.28;;;22.70;77.10;;;;;;5072447;28;20223;-71
2023/07/03 10:53:36;;;;;;;10.88;5.93;;;21.90;76.00;;;;;;5072220;28;20595;-71
2023/07/03 10:56:12;;;;;;;9.50;6.10;;;22.40;73.20;;;;;;5072170;28;20251;-71
2023/07/03 10:58:44;;;;;;;12.02;5.85;;;22.20;74.10;;;;;;5072451;28;20208;-71
2023/07/03 11:01:16;;;;;;;10.80;5.85;;;22.80;71.30;;;;;;5072187;28;20235;-71
2023/07/03 11:03:48;;;;;;;13.57;6.03;;;22.10;71.90;;;;;;5072188;28;20205;-71
2023/07/03 11:06:20;;;;;;;8.77;5.38;;;22.30;70.80;;;;;;5072076;28;20201;-71
2023/07/03 11:08:55;;;;;;;14.48;5.75;;;22.40;70.90;;;;;;5072164;28;20204;-71
2023/07/03 11:11:36;;;;;;;6.80;3.97;;;22.60;71.70;;;;;;5072173;28;20227;-71
2023/07/03 11:14:08;;;;;;;7.47;3.72;;;22.10;69.70;;;;;;5072038;28;20197;-71
2023/07/03 11:16:45;;;;;;;5.97;3.47;;;21.60;70.00;;;;;;5073431;28;20227;-71
2023/07/03 11:19:22;;;;;;;8.38;4.22;;;21.70;69.20;;;;;;5075812;28;20193;-71
2023/07/03 11:21:57;;;;;;;7.47;4.40;;;22.20;70.50;;;;;;5075679;28;20204;-71
2023/07/03 11:24:31;;;;;;;8.00;4.30;;;23.40;67.60;;;;;;5075677;28;20205;-71
2023/07/03 11:27:05;;;;;;;10.18;4.57;;;24.10;65.00;;;;;;5075559;28;20583;-72
2023/07/03 11:29:32;;;;;;;10.27;4.72;;;23.30;66.80;;;;;;5075694;28;20197;-71
2023/07/03 11:32:00;;;;;;;8.73;4.45;;;23.60;65.00;;;;;;5075444;28;20595;-71
2023/07/03 11:34:28;;;;;;;7.15;4.07;;;23.90;65.50;;;;;;5075529;28;20228;-72
2023/07/03 11:36:57;;;;;;;7.18;3.90;;;24.70;62.80;;;;;;5075397;28;20255;-70
2023/07/03 11:39:28;;;;;;;4.32;2.97;;;25.00;61.30;;;;;;5075188;28;20207;-70
2023/07/03 11:42:10;;;;;;;4.40;3.70;;;24.30;59.20;;;;;;5075529;28;20189;-71
2023/07/03 11:44:42;;;;;;;5.72;3.97;;;23.20;61.90;;;;;;5075427;28;20204;-70
2023/07/03 11:47:12;;;;;;;6.07;3.83;;;23.00;63.70;;;;;;5075281;28;20193;-70
2023/07/03 11:49:44;;;;;;;5.85;3.67;;;23.50;63.20;;;;;;5075224;28;20193;-70
2023/07/03 11:52:14;;;;;;;5.85;3.15;;;25.30;61.10;;;;;;5075084;28;20262;-71
2023/07/03 11:54:43;;;;;;;7.57;3.47;;;24.60;60.20;;;;;;5075179;28;20274;-70
2023/07/03 11:57:26;;;;;;;9.07;3.95;;;23.70;60.30;;;;;;5074744;28;20225;-71
2023/07/03 11:59:54;;;;;;;9.98;3.47;;;24.30;59.80;;;;;;5074914;28;20579;-71
2023/07/03 12:02:53;;;;;;;6.22;3.75;;;26.10;58.30;;;;;;5074962;28;20197;-71
2023/07/03 12:05:52;;;;;;;8.40;3.92;;;26.60;57.70;;;;;;5075019;28;20288;-72
2023/07/03 12:08:44;;;;;;;6.40;3.50;;;26.30;55.80;;;;;;5074736;28;20239;-71
2023/07/03 12:11:14;;;;;;;6.47;3.25;;;23.90;56.90;;;;;;5075051;28;20204;-71
2023/07/03 12:13:52;;;;;;;7.25;3.30;;;24.90;57.80;;;;;;5074805;28;20197;-71
2023/07/03 12:16:21;;;;;;;6.07;3.08;;;25.10;55.30;;;;;;5074741;28;20576;-71
2023/07/03 12:18:57;;;;;;;7.18;2.80;;;25.60;53.50;;;;;;5074667;28;20212;-71
2023/07/03 12:21:24;;;;;;;4.38;3.20;;;24.90;51.60;;;;;;5074261;28;20311;-71
2023/07/03 12:23:51;;;;;;;4.50;3.05;;;23.40;55.00;;;;;;5074743;28;20251;-71
2023/07/03 12:26:19;;;;;;;5.10;2.90;;;24.50;56.00;;;;;;5074584;28;20197;-71
2023/07/03 12:28:46;;;;;;;4.20;3.20;;;24.50;57.10;;;;;;5074203;28;20255;-71
2023/07/03 12:31:16;;;;;;;8.93;3.50;;;25.10;55.30;;;;;;5074388;28;20199;-71
2023/07/03 12:33:54;;;;;;;7.47;3.92;;;25.80;54.80;;;;;;5074246;28;20652;-71
2023/07/03 12:36:27;;;;;;;5.88;3.28;;;26.80;54.40;;;;;;5074539;28;20242;-71
2023/07/03 12:38:54;;;;;;;6.57;2.55;;;25.40;54.30;;;;;;5074215;28;20201;-71